Skip Navigation LinksHome page > Weather > Current weather Skip Navigation Links

Current Weather

Jakutsk, Russia

For information only: do not use for flight planning or navigation.
Latest weather
Observation time Wednesday, January 18, 2017 10:30 PM JST
Local time Wednesday, January 18, 2017 10:59 PM JST
Flight conditions Visual Meteorological Conditions
Winds
Wind direction North (10°)
Wind speed 2 mph
Visibility 6.2 mi.
Sky condition
Ceiling unlimited
Sky clear
Temperature -31°F
Dewpoint -38°F
Altimeter 30.53 in.Hg
Precipitation
QF 10:46 AM
Derived measurements
Relative humidity 67%
Wind chill -31°F
Density altitude -7026 ft.
Remarks
Ceiling and visibility OK.
No significant changes expected in the next two hours.
METAR UEEE 181330Z 01001MPS CAVOK M35/M39 Q1034 R23L/490150 NOSIG RMK QFE766

Settings

Location code

InnerDrive.Weather 4.0.6144.1 Release CLR 4.0.30319.34209
Copyright ©2015 Inner Drive Technology. All rights reserved. Portions Copyright ©1986-2015 David Braverman.

Find weather

Site navigation


Skip Navigation Links

Place info

Page info

PayPal - The safer, easier way to pay online!

Return home.

Copyright ©2017 Inner Drive Technology. Purveyors of fine, hand-crafted computer software. Page printed 2017-01-18T13:59:07 UTC.